Weather at Montreal / Pierre Elliott Trudeau International Airport

Public forecast

Using degrees Celsius for public forecast. Weather courtesy of forecast.io.

Current aviation weather report (METAR) for Montreal / Pierre Elliott Trudeau International Airport

Retrieved 2022/07/06 04:00 UTC (12 minutes ago):

CYUL 060400Z 01013KT 7SM -RA BKN007 OVC012 16/16 A2973 RMK SF6SC2 SLP071 DENSITY ALT 600FT

Aviation forecast (TAF) for Montreal / Pierre Elliott Trudeau International Airport

Retrieved 2022-07-06 03:45 UTC (27 minutes ago):

TAF CYUL 060240Z 0603/0624 02007KT 4SM -RA BR BKN007 OVC012 TEMPO 0603/0609 P6SM NSW OVC015 FM060900 01010KT P6SM -SHRA BKN015 OVC030 FM061100 01012KT P6SM BKN015 BKN030 FM061300 01012KT P6SM BKN030 FM062000 32008KT P6SM BKN060 RMK NXT FCST BY 060600Z